This is the latest recevied weather packets stored in our database for station/object DO7CRZ-11. If no packets are shown the sender has not sent any weather packets the latest 10 day(s).
| Time | Temp. | Humidity | Pressure | Rain* | Wind** | Luminosity | Snow |
|---|---|---|---|---|---|---|---|
| 1777356128 | 7.22° C | 55% | 1023.1 hPa | 0 mm | - | 188 W/m² | - |
| 1777354934 | 6.11° C | 59% | 1023 hPa | 0 mm | - | 138 W/m² | - |
| 1777354327 | 5.56° C | 62% | 1023 hPa | 0 mm | - | 109 W/m² | - |
| 1777351928 | 3.89° C | 68% | 1022.9 hPa | 0 mm | - | 41 W/m² | - |
| 1777351331 | 3.33° C | 69% | 1022.8 hPa | 0 mm | - | 29 W/m² | - |
| 1777350734 | 3.33° C | 69% | 1022.6 hPa | 0 mm | - | 23 W/m² | - |
| 1777350127 | 3.33° C | 70% | 1022.6 hPa | 0 mm | - | 19 W/m² | - |
| 1777349529 | 3.33° C | 70% | 1022.4 hPa | 0 mm | - | 14 W/m² | - |
| 1777348932 | 3.33° C | 70% | 1022.4 hPa | 0 mm | - | 9 W/m² | - |
| 1777348335 | 3.33° C | 70% | 1022.3 hPa | 0 mm | - | 5 W/m² | - |
| 1777347728 | 3.33° C | 71% | 1022.4 hPa | 0 mm | - | 2 W/m² | - |
| 1777347133 | 3.33° C | 71% | 1022.4 hPa | 0 mm | - | 1 W/m² | - |
| 1777346533 | 3.33° C | 72% | 1022.4 hPa | 0 mm | - | 0 W/m² | - |
| 1777345936 | 3.33° C | 72% | 1022.4 hPa | 0 mm | - | 0 W/m² | - |
| 1777344732 | 2.78° C | 72% | 1022.3 hPa | 0 mm | - | 0 W/m² | - |
| 1777344135 | 2.78° C | 71% | 1022.4 hPa | 0 mm | - | 0 W/m² | - |
| 1777343527 | 2.78° C | 70% | 1022.3 hPa | 0 mm | - | 0 W/m² | - |
| 1777342930 | 2.78° C | 69% | 1022.2 hPa | 0 mm | - | 0 W/m² | - |
| 1777342332 | 3.33° C | 69% | 1022.2 hPa | 0 mm | - | 0 W/m² | - |
| 1777341734 | 3.33° C | 68% | 1022.1 hPa | 0 mm | - | 0 W/m² | - |
| 1777341127 | 3.33° C | 68% | 1022 hPa | 0 mm | - | 0 W/m² | - |
| 1777340529 | 3.89° C | 67% | 1022 hPa | 0 mm | - | 0 W/m² | - |
| 1777339932 | 3.89° C | 66% | 1021.8 hPa | 0 mm | - | 0 W/m² | - |
| 1777339335 | 4.44° C | 65% | 1021.9 hPa | 0 mm | - | 0 W/m² | - |
| 1777338130 | 5° C | 63% | 1021.9 hPa | 0 mm | - | 0 W/m² | - |
* Rain latest hour (hover to see other rain measurements)
** Current wind speed in m/s (hover to see current wind gust speed)